createdAt,value
2019-02-15T00:00:52.760Z,64.10
2019-02-15T00:03:19.205Z,64.00
2019-02-15T00:05:45.350Z,64.50
2019-02-15T00:08:11.527Z,64.70
2019-02-15T00:10:38.407Z,64.60
2019-02-15T00:13:13.036Z,64.30
2019-02-15T00:15:32.614Z,64.10
2019-02-15T00:18:00.940Z,65.10
2019-02-15T00:20:29.043Z,64.10
2019-02-15T00:22:55.177Z,64.10
2019-02-15T00:25:21.588Z,63.90
2019-02-15T00:27:47.731Z,63.50
2019-02-15T00:30:13.874Z,64.10
2019-02-15T00:32:40.025Z,63.80
2019-02-15T00:35:06.380Z,63.80
2019-02-15T00:37:32.837Z,63.90
2019-02-15T00:39:59.299Z,65.10
2019-02-15T00:42:25.539Z,64.40
2019-02-15T00:44:51.664Z,62.70
2019-02-15T00:47:31.759Z,61.20
2019-02-15T00:50:00.101Z,60.70
2019-02-15T00:52:31.203Z,60.10
2019-02-15T00:55:14.114Z,59.40
2019-02-15T00:57:48.044Z,59.60
2019-02-15T01:00:21.682Z,60.10
2019-02-15T01:02:50.027Z,59.80
2019-02-15T01:05:23.875Z,59.00
2019-02-15T01:07:54.690Z,59.20
2019-02-15T01:10:22.737Z,58.90
2019-02-15T01:12:50.837Z,58.50
2019-02-15T01:15:17.015Z,57.70
2019-02-15T01:17:43.172Z,58.20
2019-02-15T01:20:09.311Z,58.50
2019-02-15T01:22:35.498Z,58.80
2019-02-15T01:25:03.947Z,58.50
2019-02-15T01:27:32.041Z,58.90
2019-02-15T01:30:16.878Z,58.70
2019-02-15T01:32:47.889Z,58.90
2019-02-15T01:35:15.953Z,59.40
2019-02-15T01:37:52.727Z,58.90
2019-02-15T01:40:20.769Z,58.90
2019-02-15T01:42:49.058Z,59.00
2019-02-15T01:45:17.107Z,59.50
2019-02-15T01:47:43.879Z,59.40
2019-02-15T01:50:10.012Z,58.80
2019-02-15T01:52:36.448Z,58.80
2019-02-15T01:55:04.083Z,58.10
2019-02-15T01:57:30.257Z,57.80
2019-02-15T01:59:56.393Z,57.90
2019-02-15T02:02:24.488Z,58.00
2019-02-15T02:04:50.620Z,58.10
2019-02-15T02:07:16.913Z,58.10
2019-02-15T02:09:43.311Z,58.20
2019-02-15T02:12:09.856Z,58.30
2019-02-15T02:14:36.009Z,58.50
2019-02-15T02:17:02.522Z,58.20
2019-02-15T02:19:28.672Z,58.60
2019-02-15T02:21:56.244Z,58.40
2019-02-15T02:24:22.455Z,58.00
2019-02-15T02:26:48.867Z,58.40
2019-02-15T02:29:15.021Z,58.40
2019-02-15T02:31:41.185Z,58.90
2019-02-15T02:34:07.342Z,58.90
2019-02-15T02:36:53.400Z,58.80
2019-02-15T02:39:19.563Z,59.40
2019-02-15T02:41:45.707Z,58.60
2019-02-15T02:44:11.867Z,58.60
2019-02-15T02:46:37.997Z,58.50
2019-02-15T02:49:04.152Z,58.50
2019-02-15T02:51:30.296Z,58.00
2019-02-15T02:53:56.452Z,58.30
2019-02-15T02:56:22.601Z,58.40
2019-02-15T02:58:48.763Z,58.20
2019-02-15T03:01:14.897Z,58.30
2019-02-15T03:03:41.165Z,58.60
2019-02-15T03:06:07.488Z,59.10
2019-02-15T03:08:33.642Z,59.20
2019-02-15T03:10:59.819Z,59.40
2019-02-15T03:13:25.979Z,59.40
2019-02-15T03:15:52.129Z,59.40
2019-02-15T03:18:18.284Z,59.50
2019-02-15T03:20:44.732Z,59.50
2019-02-15T03:23:10.909Z,60.80
2019-02-15T03:25:37.416Z,59.90
2019-02-15T03:28:03.563Z,60.10
2019-02-15T03:30:29.760Z,60.40
2019-02-15T03:32:55.973Z,60.60
2019-02-15T03:35:22.132Z,60.70
2019-02-15T03:37:51.185Z,60.70
2019-02-15T03:40:22.294Z,60.80
2019-02-15T03:42:48.768Z,61.40
2019-02-15T03:45:16.624Z,61.30
2019-02-15T03:47:42.769Z,61.60
2019-02-15T03:50:09.028Z,61.80
2019-02-15T03:52:35.431Z,62.00
2019-02-15T03:55:03.288Z,62.00
2019-02-15T03:57:29.421Z,62.20
2019-02-15T03:59:55.582Z,62.50
2019-02-15T04:02:21.730Z,62.70
2019-02-15T04:04:47.913Z,62.80
2019-02-15T04:07:14.054Z,63.00
2019-02-15T04:09:40.202Z,63.20
2019-02-15T04:12:06.338Z,63.30
2019-02-15T04:14:33.487Z,63.40
2019-02-15T04:16:59.869Z,63.50
2019-02-15T04:19:26.015Z,63.70
2019-02-15T04:21:52.425Z,63.60
2019-02-15T04:24:18.826Z,63.80
2019-02-15T04:26:44.969Z,63.90
2019-02-15T04:29:11.411Z,63.70
2019-02-15T04:31:37.545Z,63.90
2019-02-15T04:34:04.705Z,64.00
2019-02-15T04:36:30.843Z,64.10
2019-02-15T04:38:56.994Z,64.20
2019-02-15T04:41:23.127Z,64.30
2019-02-15T04:43:49.275Z,64.30
2019-02-15T04:46:15.440Z,64.10
2019-02-15T04:48:41.676Z,64.00
2019-02-15T04:51:07.854Z,64.20
2019-02-15T04:53:34.311Z,64.00
2019-02-15T04:56:00.456Z,63.90
2019-02-15T04:58:26.596Z,63.90
2019-02-15T05:00:52.750Z,64.10
2019-02-15T05:03:19.643Z,64.10
2019-02-15T05:05:45.949Z,64.30
2019-02-15T05:08:12.096Z,64.30
2019-02-15T05:10:38.247Z,64.30
2019-02-15T05:13:04.387Z,64.40
2019-02-15T05:15:30.527Z,64.50
2019-02-15T05:17:56.673Z,64.60
2019-02-15T05:20:23.130Z,64.60
2019-02-15T05:22:49.391Z,64.60
2019-02-15T05:25:15.554Z,64.50
2019-02-15T05:27:47.764Z,64.40
2019-02-15T05:30:13.915Z,64.50
2019-02-15T05:32:40.328Z,64.60
2019-02-15T05:35:06.562Z,64.90
2019-02-15T05:37:32.711Z,65.00
2019-02-15T05:39:59.851Z,65.00
2019-02-15T05:42:25.996Z,65.40
2019-02-15T05:44:52.141Z,65.50
2019-02-15T05:47:18.325Z,65.50
2019-02-15T05:49:44.643Z,65.50
2019-02-15T05:52:10.788Z,66.20
2019-02-15T05:54:36.945Z,66.40
2019-02-15T05:57:03.095Z,66.50
2019-02-15T05:59:30.257Z,67.50
2019-02-15T06:01:56.415Z,66.70
2019-02-15T06:04:24.472Z,66.70
2019-02-15T06:06:50.893Z,66.50
2019-02-15T06:09:17.019Z,66.40
2019-02-15T06:11:43.171Z,67.40
2019-02-15T06:14:09.359Z,66.90
2019-02-15T06:16:35.533Z,66.80
2019-02-15T06:19:01.694Z,66.90
2019-02-15T06:21:27.838Z,66.80
2019-02-15T06:23:54.299Z,66.60
2019-02-15T06:26:20.431Z,67.80
2019-02-15T06:28:46.590Z,67.00
2019-02-15T06:31:12.729Z,66.70
2019-02-15T06:33:38.887Z,66.50
2019-02-15T06:36:05.039Z,66.40
2019-02-15T06:38:34.812Z,66.90
2019-02-15T06:40:59.220Z,66.90
2019-02-15T06:43:25.363Z,66.90
2019-02-15T06:45:51.509Z,67.20
2019-02-15T06:48:17.652Z,67.20
2019-02-15T06:50:43.791Z,67.40
2019-02-15T06:53:10.179Z,67.60
2019-02-15T06:55:36.487Z,67.50
2019-02-15T06:58:02.659Z,67.60
2019-02-15T07:00:39.475Z,67.40
2019-02-15T07:03:10.287Z,67.30
2019-02-15T07:05:36.444Z,67.20
2019-02-15T07:08:02.585Z,67.30
2019-02-15T07:10:29.019Z,67.10
2019-02-15T07:12:56.165Z,68.00
2019-02-15T07:15:22.308Z,67.00
2019-02-15T07:17:49.466Z,67.10
2019-02-15T07:20:15.607Z,67.00
2019-02-15T07:22:41.751Z,66.70
2019-02-15T07:25:09.895Z,66.50
2019-02-15T07:27:36.032Z,66.40
2019-02-15T07:30:04.876Z,66.10
2019-02-15T07:32:31.115Z,65.50
2019-02-15T07:34:57.264Z,64.40
2019-02-15T07:37:23.400Z,62.80
2019-02-15T07:39:49.539Z,61.70
2019-02-15T07:42:15.684Z,60.00
2019-02-15T07:44:42.151Z,58.90
2019-02-15T07:47:08.303Z,57.40
2019-02-15T07:49:34.456Z,56.00
2019-02-15T07:52:00.619Z,55.50
2019-02-15T07:54:26.755Z,54.20
2019-02-15T07:56:52.907Z,53.20
2019-02-15T07:59:19.068Z,52.50
2019-02-15T08:01:45.444Z,51.90
2019-02-15T08:04:11.883Z,51.30
2019-02-15T08:06:38.320Z,50.70
2019-02-15T08:09:08.124Z,50.70
2019-02-15T08:11:34.289Z,50.10
2019-02-15T08:14:00.433Z,49.50
2019-02-15T08:16:26.579Z,48.80
2019-02-15T08:18:52.971Z,48.60
2019-02-15T08:21:19.113Z,47.50
2019-02-15T08:23:45.254Z,47.30
2019-02-15T08:26:11.647Z,46.80
2019-02-15T08:28:38.032Z,46.90
2019-02-15T08:31:04.173Z,46.30
2019-02-15T08:33:30.547Z,46.10
2019-02-15T08:35:56.700Z,45.30
2019-02-15T08:38:22.835Z,45.40
2019-02-15T08:40:48.993Z,44.90
2019-02-15T08:43:15.132Z,44.80
2019-02-15T08:45:41.278Z,44.80
2019-02-15T08:48:07.420Z,44.00
2019-02-15T08:50:34.656Z,44.20
2019-02-15T08:53:00.804Z,43.70
2019-02-15T08:55:26.949Z,44.40
2019-02-15T08:57:53.101Z,43.70
2019-02-15T09:00:19.240Z,42.80
2019-02-15T09:02:45.391Z,43.10
2019-02-15T09:05:11.752Z,42.80
2019-02-15T09:07:37.911Z,42.10
2019-02-15T09:10:09.115Z,42.50
2019-02-15T09:12:35.272Z,42.20
2019-02-15T09:15:01.711Z,42.10
2019-02-15T09:17:27.867Z,42.20
2019-02-15T09:19:54.007Z,42.30
2019-02-15T09:22:20.159Z,42.30
2019-02-15T09:24:46.652Z,42.30
2019-02-15T09:27:14.727Z,42.50
2019-02-15T09:29:40.879Z,42.00
2019-02-15T09:32:07.015Z,41.80
2019-02-15T09:34:33.399Z,41.80
2019-02-15T09:36:59.554Z,41.50
2019-02-15T09:39:25.732Z,41.30
2019-02-15T09:41:51.870Z,42.10
2019-02-15T09:44:18.019Z,40.80
2019-02-15T09:46:44.157Z,41.10
2019-02-15T09:49:10.303Z,41.00
2019-02-15T09:51:36.467Z,40.80
2019-02-15T09:54:02.626Z,40.60
2019-02-15T09:56:29.761Z,40.10
2019-02-15T09:58:55.895Z,40.50
2019-02-15T10:01:22.039Z,41.10
2019-02-15T10:03:48.187Z,40.30
2019-02-15T10:06:15.324Z,40.80
2019-02-15T10:08:41.482Z,40.50
2019-02-15T10:11:07.620Z,40.40
2019-02-15T10:13:33.857Z,41.00
2019-02-15T10:15:59.991Z,40.90
2019-02-15T10:18:26.362Z,41.60
2019-02-15T10:20:52.739Z,41.60
2019-02-15T10:23:19.145Z,41.10
2019-02-15T10:25:45.290Z,41.00
2019-02-15T10:28:11.658Z,41.10
2019-02-15T10:30:37.805Z,40.80
2019-02-15T10:33:03.935Z,41.00
2019-02-15T10:35:30.331Z,40.70
2019-02-15T10:37:57.489Z,41.60
2019-02-15T10:40:23.627Z,41.40
2019-02-15T10:42:49.764Z,41.60
2019-02-15T10:45:15.894Z,41.60
2019-02-15T10:47:42.039Z,41.90
2019-02-15T10:50:09.388Z,42.00
2019-02-15T10:52:35.628Z,41.80
2019-02-15T10:55:01.772Z,41.70
2019-02-15T10:57:28.347Z,41.50
2019-02-15T10:59:54.499Z,41.90
2019-02-15T11:02:20.655Z,41.80
2019-02-15T11:04:46.836Z,42.00
2019-02-15T11:07:13.014Z,42.40
2019-02-15T11:09:39.156Z,43.20
2019-02-15T11:12:05.459Z,42.10
2019-02-15T11:14:31.627Z,41.70
2019-02-15T11:16:58.011Z,41.60
2019-02-15T11:19:24.165Z,41.60
2019-02-15T11:21:50.307Z,41.70
2019-02-15T11:24:16.469Z,41.80
2019-02-15T11:26:42.835Z,41.70
2019-02-15T11:29:09.999Z,42.10
2019-02-15T11:31:36.138Z,42.20
2019-02-15T11:34:02.608Z,41.80
2019-02-15T11:36:29.836Z,42.00
2019-02-15T11:38:56.322Z,42.40
2019-02-15T11:41:22.477Z,41.80
2019-02-15T11:43:48.850Z,41.50
2019-02-15T11:46:14.992Z,41.60
2019-02-15T11:48:42.127Z,41.80
2019-02-15T11:51:08.263Z,41.50
2019-02-15T11:53:34.399Z,41.40
2019-02-15T11:56:00.543Z,41.20
2019-02-15T11:58:26.688Z,41.40
2019-02-15T12:00:52.840Z,42.10
2019-02-15T12:03:18.988Z,41.30
2019-02-15T12:05:45.360Z,41.60
2019-02-15T12:08:11.507Z,41.80
2019-02-15T12:10:37.637Z,41.20
2019-02-15T12:13:03.802Z,41.20
2019-02-15T12:15:29.993Z,41.50
2019-02-15T12:17:56.132Z,41.60
2019-02-15T12:20:22.493Z,41.00
2019-02-15T12:22:48.638Z,41.00
2019-02-15T12:25:14.792Z,41.40
2019-02-15T12:27:40.931Z,41.50
2019-02-15T12:30:12.694Z,41.50
2019-02-15T12:32:39.836Z,41.40
2019-02-15T12:35:07.515Z,40.90
2019-02-15T12:37:33.945Z,41.10
2019-02-15T12:40:00.351Z,40.60
2019-02-15T12:42:26.520Z,40.50
2019-02-15T12:44:52.680Z,40.20
2019-02-15T12:47:18.824Z,40.80
2019-02-15T12:49:44.972Z,40.40
2019-02-15T12:52:11.117Z,40.50
2019-02-15T12:54:37.511Z,39.90
2019-02-15T12:57:03.652Z,39.70
2019-02-15T12:59:29.811Z,39.60
2019-02-15T13:01:56.184Z,39.90
2019-02-15T13:04:22.312Z,39.70
2019-02-15T13:06:48.461Z,40.30
2019-02-15T13:09:14.604Z,40.30
2019-02-15T13:11:40.730Z,40.50
2019-02-15T13:14:06.861Z,39.80
2019-02-15T13:16:35.708Z,39.90
2019-02-15T13:19:01.853Z,39.90
2019-02-15T13:21:27.995Z,39.80
2019-02-15T13:23:54.136Z,39.50
2019-02-15T13:26:20.370Z,39.60
2019-02-15T13:28:46.540Z,39.60
2019-02-15T13:31:12.667Z,39.40
2019-02-15T13:33:38.818Z,39.80
2019-02-15T13:36:05.277Z,40.00
2019-02-15T13:38:31.418Z,39.90
2019-02-15T13:40:57.545Z,40.10
2019-02-15T13:43:23.700Z,40.00
2019-02-15T13:45:49.835Z,40.00
2019-02-15T13:48:15.968Z,39.70
2019-02-15T13:50:42.329Z,39.20
2019-02-15T13:53:08.748Z,38.80
2019-02-15T13:55:34.875Z,39.40
2019-02-15T13:58:04.064Z,39.30
2019-02-15T14:00:30.431Z,39.30
2019-02-15T14:02:56.591Z,39.00
2019-02-15T14:05:22.775Z,39.10
2019-02-15T14:07:49.207Z,39.30
2019-02-15T14:10:15.361Z,39.60
2019-02-15T14:12:41.488Z,39.20
2019-02-15T14:15:11.381Z,39.20
2019-02-15T14:17:44.205Z,39.70
2019-02-15T14:20:09.163Z,39.90
2019-02-15T14:22:35.310Z,39.70
2019-02-15T14:25:01.460Z,39.50
2019-02-15T14:27:27.601Z,39.50
2019-02-15T14:29:53.750Z,39.20
2019-02-15T14:32:19.904Z,39.50
2019-02-15T14:34:46.054Z,39.10
2019-02-15T14:37:12.206Z,39.20
2019-02-15T14:39:38.442Z,39.20
2019-02-15T14:42:04.574Z,39.40
2019-02-15T14:44:30.752Z,38.90
2019-02-15T14:46:56.892Z,39.00
2019-02-15T14:49:23.028Z,38.90
2019-02-15T14:51:49.404Z,39.00
2019-02-15T14:54:15.887Z,39.30
2019-02-15T14:56:42.027Z,39.10
2019-02-15T14:59:08.172Z,38.90
2019-02-15T15:01:34.319Z,39.00
2019-02-15T15:04:00.455Z,39.50
2019-02-15T15:06:26.647Z,39.20
2019-02-15T15:08:52.900Z,39.30
2019-02-15T15:11:19.048Z,39.60
2019-02-15T15:13:45.175Z,39.30
2019-02-15T15:16:11.603Z,39.20
2019-02-15T15:18:37.735Z,39.30
2019-02-15T15:21:04.115Z,39.10
2019-02-15T15:23:30.355Z,39.30
2019-02-15T15:25:56.834Z,39.50
2019-02-15T15:28:23.260Z,39.70
2019-02-15T15:30:49.415Z,39.80
2019-02-15T15:33:15.556Z,40.50
2019-02-15T15:35:41.709Z,40.30
2019-02-15T15:38:07.854Z,39.90
2019-02-15T15:40:34.015Z,40.00
2019-02-15T15:43:00.175Z,40.00
2019-02-15T15:45:26.303Z,40.50
2019-02-15T15:47:52.451Z,40.50
2019-02-15T15:50:18.732Z,41.80
2019-02-15T15:52:44.950Z,41.20
2019-02-15T15:55:12.276Z,41.40
2019-02-15T15:57:39.531Z,41.50
2019-02-15T16:00:08.808Z,41.80
2019-02-15T16:02:35.077Z,42.50
2019-02-15T16:05:01.240Z,42.30
2019-02-15T16:07:27.392Z,42.10
2019-02-15T16:09:53.577Z,42.70
2019-02-15T16:12:19.852Z,43.40
2019-02-15T16:14:46.018Z,43.60
2019-02-15T16:17:12.184Z,42.80
2019-02-15T16:19:40.738Z,43.40
2019-02-15T16:22:06.727Z,43.50
2019-02-15T16:24:32.893Z,43.60
2019-02-15T16:26:59.016Z,44.10
2019-02-15T16:29:25.169Z,44.60
2019-02-15T16:31:51.642Z,44.80
2019-02-15T16:34:17.983Z,44.90
2019-02-15T16:36:44.149Z,44.90
2019-02-15T16:39:10.306Z,45.30
2019-02-15T16:41:36.559Z,45.40
2019-02-15T16:44:02.988Z,45.30
2019-02-15T16:46:29.138Z,45.70
2019-02-15T16:48:55.293Z,46.10
2019-02-15T16:51:21.455Z,46.10
2019-02-15T16:53:47.610Z,46.50
2019-02-15T16:56:13.743Z,46.60
2019-02-15T16:58:43.181Z,46.80
2019-02-15T17:01:09.336Z,47.10
2019-02-15T17:03:35.479Z,47.10
2019-02-15T17:06:01.624Z,46.90
2019-02-15T17:08:27.775Z,47.50
2019-02-15T17:10:53.965Z,47.80
2019-02-15T17:13:20.188Z,48.10
2019-02-15T17:15:46.487Z,48.30
2019-02-15T17:18:12.723Z,48.80
2019-02-15T17:20:38.875Z,49.30
2019-02-15T17:23:05.027Z,49.20
2019-02-15T17:25:31.417Z,50.00
2019-02-15T17:27:57.779Z,50.30
2019-02-15T17:30:23.921Z,50.60
2019-02-15T17:32:50.063Z,51.10
2019-02-15T17:35:16.209Z,50.60
2019-02-15T17:37:42.352Z,50.50
2019-02-15T17:40:11.347Z,49.90
2019-02-15T17:42:37.482Z,49.80
2019-02-15T17:45:05.620Z,50.20
2019-02-15T17:47:32.853Z,50.30
2019-02-15T17:49:59.560Z,49.70
2019-02-15T17:52:25.875Z,49.60
2019-02-15T17:54:52.026Z,49.30
2019-02-15T17:57:18.510Z,49.50
2019-02-15T17:59:45.429Z,49.40
2019-02-15T18:02:11.928Z,49.20
2019-02-15T18:04:38.301Z,49.00
2019-02-15T18:07:04.442Z,48.70
2019-02-15T18:09:30.574Z,47.90
2019-02-15T18:11:56.719Z,47.10
2019-02-15T18:14:22.856Z,46.40
2019-02-15T18:16:49.015Z,46.20
2019-02-15T18:19:15.150Z,45.80
2019-02-15T18:21:41.531Z,45.50
2019-02-15T18:24:07.692Z,45.40
2019-02-15T18:26:34.843Z,45.00
2019-02-15T18:29:01.011Z,45.20
2019-02-15T18:31:27.121Z,45.20
2019-02-15T18:33:53.495Z,45.70
2019-02-15T18:36:19.658Z,45.80
2019-02-15T18:38:45.820Z,46.10
2019-02-15T18:41:13.814Z,46.10
2019-02-15T18:43:40.009Z,46.50
2019-02-15T18:46:06.156Z,47.10
2019-02-15T18:48:32.316Z,47.70
2019-02-15T18:50:58.683Z,48.00
2019-02-15T18:53:24.853Z,48.20
2019-02-15T18:55:50.999Z,48.40
2019-02-15T18:58:17.144Z,48.40
2019-02-15T19:00:43.279Z,48.40
2019-02-15T19:03:09.474Z,48.40
2019-02-15T19:05:35.714Z,48.20
2019-02-15T19:08:01.866Z,48.00
2019-02-15T19:10:28.086Z,47.90
2019-02-15T19:12:54.242Z,47.30
2019-02-15T19:15:20.627Z,47.30
2019-02-15T19:17:46.804Z,47.00
2019-02-15T19:20:13.833Z,46.80
2019-02-15T19:22:41.194Z,46.80
2019-02-15T19:25:09.693Z,46.40
2019-02-15T19:27:35.830Z,46.40
2019-02-15T19:30:06.232Z,46.10
2019-02-15T19:32:32.535Z,45.90
2019-02-15T19:34:59.740Z,46.10
2019-02-15T19:37:26.111Z,46.20
2019-02-15T19:39:52.252Z,46.10
2019-02-15T19:42:18.392Z,46.10
2019-02-15T19:44:44.523Z,46.10
2019-02-15T19:47:10.674Z,46.00
2019-02-15T19:49:39.087Z,46.10
2019-02-15T19:52:05.114Z,46.20
2019-02-15T19:54:31.287Z,46.20
2019-02-15T19:56:57.419Z,46.20
2019-02-15T19:59:23.555Z,46.20
2019-02-15T20:01:49.699Z,46.20
2019-02-15T20:04:16.072Z,46.40
2019-02-15T20:06:42.203Z,46.40
2019-02-15T20:09:08.548Z,46.70
2019-02-15T20:11:35.117Z,46.90
2019-02-15T20:14:01.264Z,46.70
2019-02-15T20:16:27.399Z,46.70
2019-02-15T20:18:53.804Z,46.80
2019-02-15T20:21:20.206Z,46.90
2019-02-15T20:23:46.345Z,46.80
2019-02-15T20:26:12.739Z,46.70
2019-02-15T20:28:38.875Z,46.60
2019-02-15T20:31:05.027Z,46.60
2019-02-15T20:33:31.166Z,46.50
2019-02-15T20:35:57.335Z,46.80
2019-02-15T20:38:23.715Z,46.70
2019-02-15T20:40:50.099Z,46.70
2019-02-15T20:43:16.526Z,46.90
2019-02-15T20:45:42.705Z,47.00
2019-02-15T20:48:11.862Z,46.90
2019-02-15T20:50:36.889Z,47.10
2019-02-15T20:53:03.027Z,47.20
2019-02-15T20:55:29.349Z,47.30
2019-02-15T20:57:55.783Z,47.50
2019-02-15T21:00:24.016Z,47.50
2019-02-15T21:02:50.451Z,47.70
2019-02-15T21:05:16.679Z,47.80
2019-02-15T21:07:43.048Z,47.80
2019-02-15T21:10:10.604Z,47.90
2019-02-15T21:12:39.354Z,48.10
2019-02-15T21:15:07.690Z,48.30
2019-02-15T21:17:33.850Z,48.50
2019-02-15T21:20:07.221Z,48.70
2019-02-15T21:22:30.476Z,48.80
2019-02-15T21:24:56.895Z,48.90
2019-02-15T21:27:23.273Z,49.00
2019-02-15T21:29:49.408Z,49.10
2019-02-15T21:35:40.033Z,49.40
2019-02-15T21:38:06.186Z,49.80
2019-02-15T21:40:32.424Z,50.20
2019-02-15T21:42:58.667Z,50.40
2019-02-15T21:45:25.031Z,50.60
2019-02-15T21:47:51.475Z,50.80
2019-02-15T21:50:17.882Z,51.80
2019-02-15T21:52:44.780Z,51.30
2019-02-15T21:55:13.155Z,51.60
2019-02-15T21:57:39.307Z,51.80
2019-02-15T22:00:22.030Z,51.90
2019-02-15T22:02:48.406Z,52.10
2019-02-15T22:05:14.559Z,52.30
2019-02-15T22:07:41.066Z,52.70
2019-02-15T22:10:08.471Z,52.60
2019-02-15T22:12:35.769Z,52.70
2019-02-15T22:15:03.438Z,52.70
2019-02-15T22:17:29.795Z,53.00
2019-02-15T22:19:58.097Z,53.10
2019-02-15T22:22:24.591Z,53.20
2019-02-15T22:24:51.135Z,53.50
2019-02-15T22:27:17.475Z,53.70
2019-02-15T22:29:43.618Z,53.70
2019-02-15T22:32:10.251Z,53.70
2019-02-15T22:34:36.650Z,53.90
2019-02-15T22:37:02.791Z,53.90
2019-02-15T22:39:28.940Z,54.10
2019-02-15T22:41:55.527Z,54.20
2019-02-15T22:44:21.994Z,54.40
2019-02-15T22:46:48.453Z,54.50
2019-02-15T22:49:14.616Z,54.70
2019-02-15T22:51:40.818Z,55.00
2019-02-15T22:54:07.075Z,55.00
2019-02-15T22:56:33.217Z,55.20
2019-02-15T22:58:59.563Z,55.20
2019-02-15T23:01:26.206Z,55.40
2019-02-15T23:03:52.577Z,55.60
2019-02-15T23:06:18.907Z,55.50
2019-02-15T23:08:45.044Z,55.60
2019-02-15T23:11:11.208Z,55.60
2019-02-15T23:13:37.351Z,55.60
2019-02-15T23:16:03.762Z,55.80
2019-02-15T23:18:29.908Z,55.80
2019-02-15T23:20:56.319Z,56.10
2019-02-15T23:23:22.463Z,56.00
2019-02-15T23:25:48.756Z,56.10
2019-02-15T23:28:14.919Z,56.10
2019-02-15T23:30:41.348Z,56.10
2019-02-15T23:33:07.491Z,56.20
2019-02-15T23:35:33.635Z,56.20
2019-02-15T23:37:59.791Z,56.00
2019-02-15T23:40:25.947Z,56.00
2019-02-15T23:42:52.093Z,56.10
2019-02-15T23:45:18.235Z,56.20
2019-02-15T23:47:44.377Z,56.30
2019-02-15T23:50:10.529Z,56.30
2019-02-15T23:52:36.989Z,56.40
2019-02-15T23:55:04.053Z,56.60
2019-02-15T23:57:30.192Z,56.70
2019-02-15T23:59:56.343Z,56.70
